createdAt,value
2022-11-05T00:02:01.321Z,77.80
2022-11-05T00:04:46.801Z,78.00
2022-11-05T00:07:33.989Z,77.60
2022-11-05T00:10:08.381Z,77.00
2022-11-05T00:12:54.126Z,77.30
2022-11-05T00:15:39.586Z,77.30
2022-11-05T00:18:06.329Z,77.90
2022-11-05T00:20:33.263Z,78.50
2022-11-05T00:23:22.561Z,78.70
2022-11-05T00:25:53.551Z,78.80
2022-11-05T00:28:20.335Z,79.00
2022-11-05T00:30:47.064Z,78.90
2022-11-05T00:33:13.773Z,79.00
2022-11-05T00:35:40.565Z,79.10
2022-11-05T00:38:07.319Z,79.00
2022-11-05T00:40:34.057Z,79.30
2022-11-05T00:43:19.542Z,79.50
2022-11-05T00:45:46.245Z,79.20
2022-11-05T00:48:31.832Z,79.10
2022-11-05T00:50:58.638Z,79.00
2022-11-05T00:53:25.366Z,79.40
2022-11-05T00:55:52.127Z,79.50
2022-11-05T00:58:19.788Z,79.50
2022-11-05T01:00:50.878Z,79.50
2022-11-05T01:03:18.550Z,79.70
2022-11-05T01:05:46.977Z,79.70
2022-11-05T01:08:14.329Z,79.90
2022-11-05T01:10:46.520Z,79.70
2022-11-05T01:13:14.195Z,80.50
2022-11-05T01:15:41.503Z,79.60
2022-11-05T01:18:08.403Z,79.60
2022-11-05T01:20:35.151Z,79.60
2022-11-05T01:23:01.892Z,79.80
2022-11-05T01:25:28.740Z,79.90
2022-11-05T01:27:55.568Z,79.80
2022-11-05T01:30:22.551Z,79.70
2022-11-05T01:32:49.406Z,79.80
2022-11-05T01:35:18.721Z,79.70
2022-11-05T01:37:46.083Z,79.40
2022-11-05T01:40:14.308Z,79.20
2022-11-05T01:42:41.105Z,78.90
2022-11-05T01:45:16.393Z,78.90
2022-11-05T01:47:43.032Z,79.30
2022-11-05T01:50:12.765Z,79.20
2022-11-05T01:52:39.662Z,78.90
2022-11-05T01:55:07.525Z,79.10
2022-11-05T01:57:34.421Z,79.20
2022-11-05T02:00:01.385Z,78.90
2022-11-05T02:02:29.207Z,78.60
2022-11-05T02:04:58.191Z,78.50
2022-11-05T02:07:26.430Z,77.60
2022-11-05T02:09:53.099Z,77.30
2022-11-05T02:12:20.920Z,77.10
2022-11-05T02:17:45.984Z,78.00
2022-11-05T02:20:12.698Z,78.10
2022-11-05T02:22:54.335Z,78.30
2022-11-05T02:25:33.416Z,78.40
2022-11-05T02:28:18.333Z,78.50
2022-11-05T02:30:45.101Z,78.90
2022-11-05T02:33:34.198Z,79.30
2022-11-05T02:36:19.513Z,78.60
2022-11-05T02:38:51.157Z,78.60
2022-11-05T02:41:28.791Z,78.70
2022-11-05T02:44:03.182Z,78.20
2022-11-05T02:46:48.974Z,78.10
2022-11-05T02:49:29.446Z,78.20
2022-11-05T02:52:03.195Z,77.70
2022-11-05T02:54:38.741Z,77.20
2022-11-05T02:57:06.283Z,77.20
2022-11-05T02:59:32.971Z,77.30
2022-11-05T03:02:00.785Z,77.30
2022-11-05T03:04:27.784Z,77.80
2022-11-05T03:07:00.645Z,76.60
2022-11-05T03:09:30.579Z,76.50
2022-11-05T03:12:02.164Z,76.70
2022-11-05T03:14:44.346Z,77.10
2022-11-05T03:17:14.193Z,77.30
2022-11-05T03:19:50.149Z,77.30
2022-11-05T03:22:25.530Z,77.50
2022-11-05T03:24:54.854Z,77.60
2022-11-05T03:27:27.314Z,77.90
2022-11-05T03:29:58.498Z,78.00
2022-11-05T03:32:26.229Z,78.30
2022-11-05T03:35:04.398Z,78.40
2022-11-05T03:37:32.952Z,77.60
2022-11-05T03:40:01.536Z,77.50
2022-11-05T03:42:30.097Z,77.70
2022-11-05T03:44:58.262Z,78.30
2022-11-05T03:47:27.856Z,78.30
2022-11-05T03:49:57.741Z,78.50
2022-11-05T03:52:26.281Z,78.60
2022-11-05T03:54:53.252Z,78.50
2022-11-05T03:57:31.441Z,78.40
2022-11-05T03:59:58.268Z,78.60
2022-11-05T04:02:26.628Z,78.70
2022-11-05T04:04:54.158Z,79.10
2022-11-05T04:07:39.645Z,79.10
2022-11-05T04:10:25.412Z,79.30
2022-11-05T04:13:11.512Z,78.80
2022-11-05T04:15:57.535Z,78.90
2022-11-05T04:18:24.606Z,79.20
2022-11-05T04:21:10.201Z,79.30
2022-11-05T04:23:55.830Z,79.10
2022-11-05T04:26:23.717Z,79.00
2022-11-05T04:29:09.222Z,78.70
2022-11-05T04:31:36.278Z,79.00
2022-11-05T04:34:03.286Z,78.80
2022-11-05T04:36:30.378Z,78.90
2022-11-05T04:38:57.151Z,79.20
2022-11-05T04:41:24.207Z,79.40
2022-11-05T04:43:50.985Z,79.60
2022-11-05T04:46:17.881Z,79.50
2022-11-05T04:48:44.642Z,79.70
2022-11-05T04:51:11.379Z,79.70
2022-11-05T04:53:38.102Z,79.90
2022-11-05T04:56:34.361Z,80.10
2022-11-05T04:59:01.214Z,80.30
2022-11-05T05:01:28.008Z,80.20
2022-11-05T05:03:55.259Z,80.10
2022-11-05T05:06:22.556Z,80.30
2022-11-05T05:08:49.982Z,80.30
2022-11-05T05:11:17.702Z,80.50
2022-11-05T05:13:44.609Z,80.50
2022-11-05T05:16:19.842Z,80.50
2022-11-05T05:18:46.978Z,80.50
2022-11-05T05:21:32.948Z,80.70
2022-11-05T05:24:00.040Z,80.50
2022-11-05T05:26:27.204Z,80.20
2022-11-05T05:28:54.200Z,80.40
2022-11-05T05:31:21.616Z,80.60
2022-11-05T05:33:48.574Z,80.70
2022-11-05T05:36:15.395Z,80.80
2022-11-05T05:38:42.165Z,81.10
2022-11-05T05:41:08.946Z,80.90
2022-11-05T05:43:35.767Z,80.80
2022-11-05T05:46:03.330Z,80.90
2022-11-05T05:48:30.387Z,80.70
2022-11-05T05:51:15.138Z,80.40
2022-11-05T05:53:41.932Z,80.60
2022-11-05T05:56:08.689Z,80.50
2022-11-05T05:58:36.868Z,80.40
2022-11-05T06:01:05.059Z,80.70
2022-11-05T06:03:31.980Z,80.60
2022-11-05T06:06:03.002Z,79.80
2022-11-05T06:08:30.038Z,80.00
2022-11-05T06:10:56.902Z,80.60
2022-11-05T06:13:24.089Z,79.70
2022-11-05T06:15:50.986Z,79.60
2022-11-05T06:18:17.805Z,79.20
2022-11-05T06:20:44.797Z,78.60
2022-11-05T06:23:11.872Z,78.00
2022-11-05T06:25:41.384Z,77.60
2022-11-05T06:28:08.487Z,77.60
2022-11-05T06:30:35.363Z,77.50
2022-11-05T06:33:03.590Z,77.60
2022-11-05T06:35:30.414Z,77.30
2022-11-05T06:38:00.958Z,77.10
2022-11-05T06:40:28.414Z,77.00
2022-11-05T06:42:55.424Z,77.10
2022-11-05T06:45:22.267Z,77.00
2022-11-05T06:47:54.476Z,76.70
2022-11-05T06:50:21.291Z,76.20
2022-11-05T06:52:58.062Z,75.90
2022-11-05T06:55:25.944Z,76.30
2022-11-05T06:57:52.670Z,76.10
2022-11-05T07:00:19.405Z,76.30
2022-11-05T07:02:46.348Z,76.30
2022-11-05T07:05:14.110Z,76.30
2022-11-05T07:07:41.675Z,76.60
2022-11-05T07:10:10.853Z,76.20
2022-11-05T07:12:37.701Z,76.20
2022-11-05T07:15:04.870Z,76.00
2022-11-05T07:17:32.034Z,75.80
2022-11-05T07:19:58.881Z,75.20
2022-11-05T07:22:25.653Z,75.10
2022-11-05T07:24:52.597Z,75.80
2022-11-05T07:27:19.462Z,76.10
2022-11-05T07:29:46.251Z,76.20
2022-11-05T07:32:13.359Z,75.60
2022-11-05T07:34:40.398Z,75.20
2022-11-05T07:37:07.656Z,74.50
2022-11-05T07:39:37.297Z,74.50
2022-11-05T07:42:04.664Z,74.30
2022-11-05T07:44:34.849Z,73.90
2022-11-05T07:47:01.664Z,73.40
2022-11-05T07:49:28.425Z,74.00
2022-11-05T07:51:55.243Z,72.90
2022-11-05T07:54:26.354Z,72.90
2022-11-05T07:56:53.165Z,72.90
2022-11-05T07:59:20.140Z,73.20
2022-11-05T08:01:47.036Z,74.10
2022-11-05T08:04:14.623Z,73.50
2022-11-05T08:06:41.783Z,73.30
2022-11-05T08:09:09.288Z,73.10
2022-11-05T08:11:36.434Z,72.80
2022-11-05T08:14:03.528Z,72.50
2022-11-05T08:16:30.408Z,72.10
2022-11-05T08:18:57.213Z,71.90
2022-11-05T08:21:24.257Z,71.70
2022-11-05T08:23:50.955Z,71.10
2022-11-05T08:26:17.932Z,70.80
2022-11-05T08:28:45.043Z,70.20
2022-11-05T08:31:12.095Z,70.10
2022-11-05T08:33:38.966Z,69.80
2022-11-05T08:36:05.913Z,70.10
2022-11-05T08:38:32.632Z,69.40
2022-11-05T08:40:59.415Z,69.40
2022-11-05T08:43:26.431Z,69.20
2022-11-05T08:45:54.916Z,69.00
2022-11-05T08:48:21.819Z,69.00
2022-11-05T08:50:49.052Z,68.90
2022-11-05T08:53:16.008Z,68.70
2022-11-05T08:55:44.114Z,69.00
2022-11-05T08:58:16.083Z,68.90
2022-11-05T09:00:44.551Z,68.90
2022-11-05T09:03:12.065Z,68.30
2022-11-05T09:05:39.789Z,67.80
2022-11-05T09:08:07.246Z,67.80
2022-11-05T09:10:34.419Z,68.20
2022-11-05T09:13:01.467Z,68.30
2022-11-05T09:15:28.718Z,68.40
2022-11-05T09:17:55.458Z,68.00
2022-11-05T09:20:22.566Z,67.70
2022-11-05T09:22:49.387Z,67.50
2022-11-05T09:25:16.376Z,67.60
2022-11-05T09:27:43.745Z,67.40
2022-11-05T09:30:11.429Z,67.30
2022-11-05T09:32:38.675Z,67.10
2022-11-05T09:35:06.032Z,66.70
2022-11-05T09:37:33.122Z,66.70
2022-11-05T09:39:59.897Z,67.10
2022-11-05T09:42:30.629Z,67.00
2022-11-05T09:44:59.485Z,66.80
2022-11-05T09:47:29.558Z,66.30
2022-11-05T09:49:57.208Z,66.30
2022-11-05T09:52:25.878Z,66.10
2022-11-05T09:54:53.002Z,65.90
2022-11-05T09:57:21.849Z,66.00
2022-11-05T09:59:51.083Z,65.80
2022-11-05T10:02:19.788Z,65.50
2022-11-05T10:04:48.115Z,65.40
2022-11-05T10:07:17.736Z,65.40
2022-11-05T10:09:49.560Z,65.60
2022-11-05T10:12:30.944Z,65.00
2022-11-05T10:14:57.680Z,64.90
2022-11-05T10:17:25.680Z,64.80
2022-11-05T10:20:11.291Z,64.50
2022-11-05T10:22:38.526Z,64.10
2022-11-05T10:25:15.347Z,64.10
2022-11-05T10:27:43.093Z,64.00
2022-11-05T10:30:13.588Z,64.00
2022-11-05T10:32:41.114Z,64.00
2022-11-05T10:35:10.916Z,63.60
2022-11-05T10:37:40.860Z,63.40
2022-11-05T10:40:14.345Z,63.20
2022-11-05T10:42:54.235Z,63.10
2022-11-05T10:45:21.040Z,63.20
2022-11-05T10:47:50.821Z,62.60
2022-11-05T10:50:19.680Z,62.70
2022-11-05T10:52:55.796Z,62.00
2022-11-05T10:55:24.578Z,62.40
2022-11-05T10:57:51.399Z,62.50
2022-11-05T11:00:19.092Z,62.70
2022-11-05T11:02:47.573Z,62.70
2022-11-05T11:05:22.506Z,62.80
2022-11-05T11:07:57.185Z,62.50
2022-11-05T11:10:25.274Z,62.40
2022-11-05T11:12:53.002Z,62.20
2022-11-05T11:15:19.703Z,62.10
2022-11-05T11:17:46.786Z,61.90
2022-11-05T11:20:16.283Z,62.10
2022-11-05T11:22:47.475Z,61.90
2022-11-05T11:25:25.052Z,62.50
2022-11-05T11:27:52.242Z,62.10
2022-11-05T11:30:19.980Z,62.00
2022-11-05T11:32:47.545Z,61.90
2022-11-05T11:35:21.870Z,61.20
2022-11-05T11:37:48.972Z,61.10
2022-11-05T11:40:18.178Z,61.40
2022-11-05T11:42:46.675Z,61.00
2022-11-05T11:45:16.518Z,61.40
2022-11-05T11:47:44.656Z,61.80
2022-11-05T11:50:34.844Z,61.90
2022-11-05T11:53:20.015Z,62.00
2022-11-05T11:55:56.805Z,61.10
2022-11-05T11:58:25.258Z,60.30
2022-11-05T12:00:58.916Z,60.50
2022-11-05T12:03:36.505Z,60.00
2022-11-05T12:06:12.547Z,60.00
2022-11-05T12:08:44.333Z,59.70
2022-11-05T12:11:22.949Z,59.40
2022-11-05T12:13:49.714Z,59.20
2022-11-05T12:16:49.682Z,59.40
2022-11-05T12:19:39.788Z,59.30
2022-11-05T12:22:18.956Z,59.20
2022-11-05T12:24:48.531Z,58.90
2022-11-05T12:27:22.055Z,58.50
2022-11-05T12:29:49.175Z,58.60
2022-11-05T12:32:22.192Z,58.40
2022-11-05T12:35:09.521Z,58.10
2022-11-05T12:37:51.145Z,58.60
2022-11-05T12:40:33.935Z,58.70
2022-11-05T12:43:11.542Z,58.50
2022-11-05T12:45:47.652Z,58.60
2022-11-05T12:48:30.345Z,61.90
2022-11-05T12:51:16.597Z,61.60
2022-11-05T12:53:43.491Z,61.70
2022-11-05T12:56:14.073Z,61.10
2022-11-05T12:58:44.521Z,61.30
2022-11-05T13:01:14.899Z,60.60
2022-11-05T13:03:52.074Z,59.70
2022-11-05T13:06:25.615Z,60.00
2022-11-05T13:08:58.605Z,60.60
2022-11-05T13:11:29.630Z,60.40
2022-11-05T13:13:56.425Z,59.70
2022-11-05T13:16:26.257Z,59.20
2022-11-05T13:19:11.878Z,58.00
2022-11-05T13:21:39.369Z,57.50
2022-11-05T13:24:13.358Z,57.00
2022-11-05T13:26:45.916Z,57.40
2022-11-05T13:29:25.421Z,57.60
2022-11-05T13:31:55.003Z,56.70
2022-11-05T13:34:21.809Z,56.60
2022-11-05T13:37:11.857Z,56.60
2022-11-05T13:39:44.830Z,56.70
2022-11-05T13:42:30.493Z,57.10
2022-11-05T13:45:09.438Z,56.90
2022-11-05T13:47:55.196Z,57.40
2022-11-05T13:50:31.115Z,57.10
2022-11-05T13:52:57.885Z,57.30
2022-11-05T13:55:43.359Z,57.60
2022-11-05T13:58:29.114Z,57.90
2022-11-05T14:01:09.875Z,57.70
2022-11-05T14:03:37.237Z,58.10
2022-11-05T14:06:09.933Z,57.80
2022-11-05T14:08:41.263Z,57.90
2022-11-05T14:11:34.610Z,57.90
2022-11-05T14:14:05.665Z,57.80
2022-11-05T14:16:49.340Z,57.00
2022-11-05T14:19:18.927Z,56.70
2022-11-05T14:21:55.937Z,56.40
2022-11-05T14:24:22.689Z,56.30
2022-11-05T14:27:18.738Z,56.20
2022-11-05T14:29:46.971Z,55.90
2022-11-05T14:32:20.167Z,55.80
2022-11-05T14:35:02.298Z,55.60
2022-11-05T14:37:30.462Z,55.60
2022-11-05T14:40:25.883Z,55.30
2022-11-05T14:42:57.382Z,55.20
2022-11-05T14:45:38.879Z,55.00
2022-11-05T14:48:07.095Z,54.80
2022-11-05T14:50:33.855Z,54.90
2022-11-05T14:53:06.715Z,55.00
2022-11-05T14:55:36.275Z,55.10
2022-11-05T14:58:05.074Z,55.20
2022-11-05T15:00:34.101Z,55.20
2022-11-05T15:03:02.435Z,54.70
2022-11-05T15:05:35.323Z,55.20
2022-11-05T15:08:20.773Z,55.60
2022-11-05T15:10:48.124Z,55.90
2022-11-05T15:13:24.687Z,56.20
2022-11-05T15:15:51.831Z,56.20
2022-11-05T15:18:21.630Z,57.40
2022-11-05T15:20:49.800Z,57.30
2022-11-05T15:23:17.952Z,57.50
2022-11-05T15:25:54.795Z,58.30
2022-11-05T15:28:27.877Z,57.70
2022-11-05T15:30:59.722Z,57.90
2022-11-05T15:33:27.121Z,58.40
2022-11-05T15:35:54.317Z,58.80
2022-11-05T15:38:29.010Z,59.10
2022-11-05T15:41:05.195Z,59.30
2022-11-05T15:43:32.441Z,59.50
2022-11-05T15:46:04.161Z,60.00
2022-11-05T15:48:31.217Z,60.50
2022-11-05T15:50:58.101Z,61.10
2022-11-05T15:56:29.782Z,61.30
2022-11-05T15:58:59.953Z,61.60
2022-11-05T16:01:37.479Z,62.00
2022-11-05T16:04:30.545Z,62.10
2022-11-05T16:06:58.871Z,62.40
2022-11-05T16:09:27.216Z,62.70
2022-11-05T16:12:11.609Z,62.60
2022-11-05T16:14:38.781Z,62.30
2022-11-05T16:17:21.786Z,63.00
2022-11-05T16:19:48.821Z,62.30
2022-11-05T16:22:18.461Z,62.80
2022-11-05T16:24:45.889Z,63.20
2022-11-05T16:27:19.597Z,63.20
2022-11-05T16:29:54.019Z,63.30
2022-11-05T16:32:29.802Z,63.90
2022-11-05T16:34:59.348Z,64.40
2022-11-05T16:37:26.770Z,64.00
2022-11-05T16:39:53.554Z,64.20
2022-11-05T16:42:23.443Z,63.90
2022-11-05T16:44:50.850Z,64.20
2022-11-05T16:47:18.000Z,64.30
2022-11-05T16:49:45.227Z,64.30
2022-11-05T16:52:12.725Z,64.20
2022-11-05T16:54:39.454Z,64.20
2022-11-05T16:57:21.767Z,64.50
2022-11-05T16:59:48.526Z,65.00
2022-11-05T17:02:15.404Z,64.90
2022-11-05T17:04:42.246Z,64.90
2022-11-05T17:07:08.981Z,64.60
2022-11-05T17:09:35.833Z,64.70
2022-11-05T17:12:02.604Z,64.80
2022-11-05T17:14:29.403Z,64.80
2022-11-05T17:16:56.100Z,64.80
2022-11-05T17:19:22.956Z,65.00
2022-11-05T17:21:50.130Z,64.90
2022-11-05T17:24:16.972Z,64.90
2022-11-05T17:26:43.748Z,65.20
2022-11-05T17:29:10.642Z,65.10
2022-11-05T17:31:39.209Z,64.90
2022-11-05T17:34:06.509Z,65.20
2022-11-05T17:36:33.426Z,65.30
2022-11-05T17:39:00.144Z,65.30
2022-11-05T17:41:26.986Z,65.30
2022-11-05T17:43:55.266Z,65.30
2022-11-05T17:46:22.570Z,65.50
2022-11-05T17:48:49.349Z,65.20
2022-11-05T17:51:18.517Z,65.30
2022-11-05T17:53:46.086Z,65.40
2022-11-05T17:56:13.691Z,65.40
2022-11-05T17:58:40.485Z,66.10
2022-11-05T18:01:08.690Z,65.50
2022-11-05T18:03:35.671Z,66.00
2022-11-05T18:06:06.369Z,66.20
2022-11-05T18:08:33.103Z,66.40
2022-11-05T18:10:59.914Z,66.20
2022-11-05T18:13:26.718Z,65.90
2022-11-05T18:15:54.269Z,66.20
2022-11-05T18:18:21.558Z,66.60
2022-11-05T18:20:48.341Z,66.80
2022-11-05T18:23:15.313Z,66.80
2022-11-05T18:25:42.965Z,67.10
2022-11-05T18:28:10.019Z,67.30
2022-11-05T18:30:38.109Z,67.50
2022-11-05T18:33:04.987Z,67.20
2022-11-05T18:35:31.687Z,67.00
2022-11-05T18:37:58.455Z,67.30
2022-11-05T18:40:25.223Z,66.90
2022-11-05T18:42:51.981Z,67.20
2022-11-05T18:45:18.739Z,67.30
2022-11-05T18:47:45.533Z,67.10
2022-11-05T18:50:12.282Z,66.70
2022-11-05T18:52:39.109Z,67.20
2022-11-05T18:55:06.290Z,67.30
2022-11-05T18:57:33.899Z,67.50
2022-11-05T19:00:00.652Z,67.80
2022-11-05T19:02:28.040Z,67.60
2022-11-05T19:05:22.542Z,67.50
2022-11-05T19:07:41.693Z,67.60
2022-11-05T19:10:09.094Z,67.90
2022-11-05T19:12:35.922Z,67.80
2022-11-05T19:15:03.326Z,67.90
2022-11-05T19:17:32.139Z,67.90
2022-11-05T19:19:58.934Z,68.20
2022-11-05T19:22:26.027Z,68.20
2022-11-05T19:24:52.890Z,68.20
2022-11-05T19:27:20.025Z,68.30
2022-11-05T19:29:47.259Z,68.30
2022-11-05T19:32:14.468Z,68.20
2022-11-05T19:34:41.311Z,68.40
2022-11-05T19:37:08.428Z,68.50
2022-11-05T19:39:35.710Z,68.10
2022-11-05T19:42:04.126Z,68.30
2022-11-05T19:44:31.918Z,68.70
2022-11-05T19:46:59.119Z,68.80
2022-11-05T19:49:28.160Z,68.80
2022-11-05T19:51:55.186Z,68.60
2022-11-05T19:54:22.060Z,68.40
2022-11-05T19:56:49.644Z,68.30
2022-11-05T19:59:16.490Z,68.50
2022-11-05T20:01:43.390Z,68.80
2022-11-05T20:04:12.029Z,68.80
2022-11-05T20:06:40.206Z,68.80
2022-11-05T20:09:21.549Z,68.70
2022-11-05T20:11:49.956Z,68.80
2022-11-05T20:14:16.811Z,68.90
2022-11-05T20:16:45.101Z,69.00
2022-11-05T20:19:16.013Z,69.20
2022-11-05T20:21:43.405Z,69.20
2022-11-05T20:24:17.423Z,69.50
2022-11-05T20:26:49.128Z,69.70
2022-11-05T20:29:16.080Z,69.60
2022-11-05T20:31:43.013Z,69.50
2022-11-05T20:34:10.696Z,69.50
2022-11-05T20:36:38.503Z,69.00
2022-11-05T20:39:05.818Z,69.10
2022-11-05T20:41:33.257Z,69.30
2022-11-05T20:44:00.131Z,69.20
2022-11-05T20:46:26.917Z,69.30
2022-11-05T20:48:54.396Z,69.30
2022-11-05T20:51:21.954Z,70.10
2022-11-05T20:53:49.057Z,69.40
2022-11-05T20:56:20.055Z,69.40
2022-11-05T20:58:47.567Z,69.50
2022-11-05T21:01:16.185Z,69.70
2022-11-05T21:03:43.809Z,69.70
2022-11-05T21:06:10.784Z,69.90
2022-11-05T21:08:37.690Z,70.20
2022-11-05T21:11:04.713Z,70.10
2022-11-05T21:13:31.599Z,70.20
2022-11-05T21:16:01.142Z,70.10
2022-11-05T21:18:32.201Z,70.00
2022-11-05T21:21:01.932Z,70.20
2022-11-05T21:23:29.078Z,69.90
2022-11-05T21:25:55.921Z,70.50
2022-11-05T21:28:22.621Z,70.10
2022-11-05T21:30:49.415Z,70.20
2022-11-05T21:33:17.265Z,70.30
2022-11-05T21:35:45.818Z,70.20
2022-11-05T21:38:13.769Z,70.00
2022-11-05T21:40:40.837Z,69.90
2022-11-05T21:43:08.106Z,70.00
2022-11-05T21:45:35.057Z,70.10
2022-11-05T21:48:01.900Z,70.00
2022-11-05T21:50:47.378Z,70.20
2022-11-05T21:53:33.317Z,70.10
2022-11-05T21:59:18.085Z,69.90
2022-11-05T22:01:45.048Z,70.10
2022-11-05T22:04:11.894Z,70.10
2022-11-05T22:06:38.708Z,70.10
2022-11-05T22:09:05.900Z,70.30
2022-11-05T22:11:36.372Z,70.30
2022-11-05T22:14:03.601Z,70.20
2022-11-05T22:16:30.331Z,70.40
2022-11-05T22:18:57.941Z,70.20
2022-11-05T22:21:24.657Z,70.40
2022-11-05T22:23:52.173Z,70.40
2022-11-05T22:26:18.911Z,70.50
2022-11-05T22:28:45.688Z,70.50
2022-11-05T22:31:13.549Z,70.60
2022-11-05T22:33:40.368Z,70.60
2022-11-05T22:36:07.334Z,70.30
2022-11-05T22:38:34.049Z,70.60
2022-11-05T22:41:06.354Z,70.50
2022-11-05T22:43:33.202Z,70.30
2022-11-05T22:46:10.521Z,70.40
2022-11-05T22:48:37.850Z,70.50
2022-11-05T22:51:12.293Z,70.50
2022-11-05T22:53:40.096Z,70.30
2022-11-05T22:56:08.038Z,70.50
2022-11-05T22:58:35.040Z,70.40
2022-11-05T23:01:01.947Z,70.30
2022-11-05T23:03:29.385Z,70.20
2022-11-05T23:05:59.901Z,70.50
2022-11-05T23:08:45.447Z,70.50
2022-11-05T23:11:40.763Z,70.30
2022-11-05T23:14:08.577Z,70.00
2022-11-05T23:16:54.403Z,70.10
2022-11-05T23:19:39.894Z,70.10
2022-11-05T23:22:36.549Z,70.00
2022-11-05T23:25:04.011Z,70.00
2022-11-05T23:27:31.957Z,69.90
2022-11-05T23:29:59.383Z,70.00
2022-11-05T23:32:28.150Z,70.10
2022-11-05T23:34:56.001Z,70.10
2022-11-05T23:37:42.486Z,70.20
2022-11-05T23:40:11.068Z,70.20
2022-11-05T23:42:56.436Z,70.20
2022-11-05T23:45:52.545Z,70.00
2022-11-05T23:48:37.702Z,70.10
2022-11-05T23:51:04.466Z,70.80
2022-11-05T23:53:33.082Z,70.00
2022-11-05T23:56:05.184Z,70.10
2022-11-05T23:58:32.243Z,70.10
